createdAt,value
2022-10-06T00:01:43.633Z,10.42
2022-10-06T00:04:47.555Z,10.62
2022-10-06T00:07:49.762Z,10.53
2022-10-06T00:10:56.058Z,10.42
2022-10-06T00:13:57.636Z,10.47
2022-10-06T00:16:59.501Z,10.28
2022-10-06T00:20:01.069Z,10.42
2022-10-06T00:23:06.195Z,10.46
2022-10-06T00:26:16.721Z,10.45
2022-10-06T00:29:18.923Z,10.45
2022-10-06T00:32:20.911Z,10.23
2022-10-06T00:35:23.287Z,10.20
2022-10-06T00:38:25.578Z,10.04
2022-10-06T00:41:27.411Z,10.24
2022-10-06T00:44:29.207Z,10.20
2022-10-06T00:47:32.947Z,9.96
2022-10-06T00:50:36.015Z,9.94
2022-10-06T00:53:37.800Z,10.17
2022-10-06T00:56:40.994Z,10.12
2022-10-06T00:59:42.979Z,10.20
2022-10-06T01:03:09.872Z,10.18
2022-10-06T01:06:11.949Z,10.18
2022-10-06T01:09:16.360Z,10.27
2022-10-06T01:12:19.404Z,10.28
2022-10-06T01:15:22.203Z,10.33
2022-10-06T01:18:27.440Z,10.35
2022-10-06T01:21:41.542Z,10.31
2022-10-06T01:24:46.885Z,10.22
2022-10-06T01:27:54.041Z,10.17
2022-10-06T01:30:57.918Z,10.18
2022-10-06T01:34:00.054Z,9.98
2022-10-06T01:37:01.640Z,9.95
2022-10-06T01:40:03.681Z,9.93
2022-10-06T01:43:05.250Z,10.00
2022-10-06T01:46:07.180Z,9.88
2022-10-06T01:49:08.756Z,9.89
2022-10-06T01:52:13.599Z,10.03
2022-10-06T01:55:15.267Z,9.93
2022-10-06T01:58:17.300Z,9.92
2022-10-06T02:01:19.143Z,10.03
2022-10-06T02:04:21.297Z,10.10
2022-10-06T02:07:22.973Z,10.13
2022-10-06T02:10:24.939Z,9.99
2022-10-06T02:13:28.131Z,9.79
2022-10-06T02:16:30.141Z,9.75
2022-10-06T02:19:31.795Z,9.90
2022-10-06T02:22:38.794Z,10.04
2022-10-06T02:25:40.668Z,9.95
2022-10-06T02:28:42.257Z,9.94
2022-10-06T02:31:45.107Z,9.87
2022-10-06T02:34:46.904Z,9.84
2022-10-06T02:37:49.654Z,9.95
2022-10-06T02:40:51.960Z,9.98
2022-10-06T02:43:55.357Z,9.87
2022-10-06T02:46:57.019Z,9.85
2022-10-06T02:50:02.006Z,9.85
2022-10-06T02:53:07.130Z,9.96
2022-10-06T02:56:17.639Z,9.87
2022-10-06T02:59:19.190Z,10.02
2022-10-06T03:02:20.941Z,10.03
2022-10-06T03:05:22.761Z,10.08
2022-10-06T03:08:24.331Z,10.05
2022-10-06T03:11:44.950Z,10.04
2022-10-06T03:14:46.863Z,9.88
2022-10-06T03:17:50.197Z,10.04
2022-10-06T03:20:54.031Z,9.79
2022-10-06T03:23:57.356Z,9.81
2022-10-06T03:26:59.333Z,9.94
2022-10-06T03:30:01.053Z,9.82
2022-10-06T03:33:02.608Z,9.82
2022-10-06T03:36:09.863Z,9.75
2022-10-06T03:39:11.787Z,9.66
2022-10-06T03:42:13.356Z,9.72
2022-10-06T03:45:15.118Z,9.59
2022-10-06T03:48:16.978Z,9.62
2022-10-06T03:51:27.796Z,9.43
2022-10-06T03:54:29.644Z,9.24
2022-10-06T03:57:31.251Z,9.49
2022-10-06T04:00:32.883Z,9.52
2022-10-06T04:03:35.077Z,9.51
2022-10-06T04:06:39.271Z,9.55
2022-10-06T04:09:40.834Z,9.50
2022-10-06T04:12:42.408Z,9.46
2022-10-06T04:15:45.513Z,9.54
2022-10-06T04:18:50.679Z,9.21
2022-10-06T04:21:52.713Z,9.36
2022-10-06T04:24:55.138Z,9.21
2022-10-06T04:27:57.923Z,9.12
2022-10-06T04:31:01.722Z,8.88
2022-10-06T04:34:04.979Z,9.05
2022-10-06T04:37:07.055Z,9.03
2022-10-06T04:40:09.304Z,9.03
2022-10-06T04:43:11.027Z,9.02
2022-10-06T04:46:38.008Z,8.85
2022-10-06T04:49:35.339Z,8.66
2022-10-06T04:52:36.937Z,8.83
2022-10-06T04:55:38.833Z,8.82
2022-10-06T04:58:43.348Z,8.85
2022-10-06T05:01:44.994Z,8.93
2022-10-06T05:04:47.056Z,8.86
2022-10-06T05:07:48.697Z,8.84
2022-10-06T05:10:50.245Z,9.05
2022-10-06T05:13:54.996Z,8.99
2022-10-06T05:16:57.046Z,9.06
2022-10-06T05:19:58.717Z,9.15
2022-10-06T05:23:00.367Z,9.24
2022-10-06T05:26:02.236Z,9.16
2022-10-06T05:29:04.673Z,8.95
2022-10-06T05:32:06.469Z,9.10
2022-10-06T05:35:08.592Z,9.16
2022-10-06T05:38:11.888Z,9.16
2022-10-06T05:41:24.336Z,9.37
2022-10-06T05:44:25.888Z,9.60
2022-10-06T05:47:27.469Z,9.76
2022-10-06T05:50:29.421Z,9.97
2022-10-06T05:53:32.923Z,9.93
2022-10-06T05:56:37.052Z,10.22
2022-10-06T05:59:38.620Z,10.45
2022-10-06T06:02:40.221Z,10.62
2022-10-06T06:05:43.238Z,10.81
2022-10-06T06:08:45.800Z,10.88
2022-10-06T06:11:50.170Z,11.11
2022-10-06T06:15:10.567Z,11.29
2022-10-06T06:18:13.089Z,11.72
2022-10-06T06:21:15.020Z,11.75
2022-10-06T06:24:16.730Z,11.99
2022-10-06T06:27:18.620Z,12.21
2022-10-06T06:30:21.249Z,12.61
2022-10-06T06:33:23.216Z,12.97
2022-10-06T06:36:26.264Z,13.12
2022-10-06T06:39:28.021Z,13.53
2022-10-06T06:42:29.739Z,14.04
2022-10-06T06:45:31.634Z,14.34
2022-10-06T06:48:33.480Z,14.31
2022-10-06T06:51:37.405Z,14.15
2022-10-06T06:54:40.568Z,13.94
2022-10-06T06:57:42.837Z,13.54
2022-10-06T07:00:44.961Z,13.62
2022-10-06T07:03:59.127Z,13.72
2022-10-06T07:07:00.916Z,13.98
2022-10-06T07:10:02.830Z,14.03
2022-10-06T07:13:06.972Z,13.77
2022-10-06T07:16:37.379Z,13.77
2022-10-06T07:19:50.754Z,13.68
2022-10-06T07:23:11.060Z,13.69
2022-10-06T07:26:12.647Z,13.66
2022-10-06T07:29:14.289Z,13.75
2022-10-06T07:32:16.304Z,13.84
2022-10-06T07:35:20.535Z,14.10
2022-10-06T07:38:26.180Z,14.14
2022-10-06T07:41:29.497Z,14.44
2022-10-06T07:44:31.052Z,14.91
2022-10-06T07:47:33.298Z,15.32
2022-10-06T07:50:38.309Z,16.15
2022-10-06T07:53:40.301Z,16.57
2022-10-06T07:56:42.280Z,17.12
2022-10-06T07:59:44.456Z,17.70
2022-10-06T08:02:46.254Z,18.00
2022-10-06T08:05:50.505Z,18.50
2022-10-06T08:08:56.707Z,19.82
2022-10-06T08:12:18.740Z,19.61
2022-10-06T08:15:20.333Z,20.68
2022-10-06T08:18:44.349Z,22.33
2022-10-06T08:21:44.308Z,22.86
2022-10-06T08:25:04.734Z,24.69
2022-10-06T08:28:07.505Z,24.58
2022-10-06T08:31:13.229Z,24.34
2022-10-06T08:34:15.204Z,24.10
2022-10-06T08:37:24.138Z,25.38
2022-10-06T08:40:27.660Z,27.15
2022-10-06T08:43:31.157Z,25.84
2022-10-06T08:46:46.550Z,26.42
2022-10-06T08:49:50.194Z,26.59
2022-10-06T08:53:24.452Z,26.89
2022-10-06T08:56:45.045Z,27.64
2022-10-06T08:59:50.020Z,27.44
2022-10-06T09:02:52.139Z,29.21
2022-10-06T09:06:01.047Z,30.28
2022-10-06T09:09:38.816Z,31.70
2022-10-06T09:12:47.685Z,30.48
2022-10-06T09:16:10.077Z,27.63
2022-10-06T09:19:24.559Z,25.87
2022-10-06T09:22:32.107Z,25.43
2022-10-06T09:25:34.087Z,26.71
2022-10-06T09:28:37.059Z,27.04
2022-10-06T09:31:44.939Z,28.92
2022-10-06T09:34:51.409Z,31.23
2022-10-06T09:37:54.558Z,31.46
2022-10-06T09:40:56.610Z,31.56
2022-10-06T09:44:01.668Z,32.03
2022-10-06T09:47:45.431Z,32.23
2022-10-06T09:51:17.002Z,31.67
2022-10-06T09:54:18.770Z,29.90
2022-10-06T09:57:25.363Z,28.60
2022-10-06T10:00:31.164Z,27.22
2022-10-06T10:04:08.621Z,26.29
2022-10-06T10:07:33.231Z,26.13
2022-10-06T10:10:36.675Z,24.72
2022-10-06T10:13:43.761Z,23.94
2022-10-06T10:16:50.940Z,23.52
2022-10-06T10:19:56.006Z,22.76
2022-10-06T10:23:01.343Z,22.36
2022-10-06T10:26:27.154Z,22.13
2022-10-06T10:29:48.957Z,21.26
2022-10-06T10:33:18.889Z,21.82
2022-10-06T10:36:26.224Z,21.43
2022-10-06T10:39:42.145Z,21.62
2022-10-06T10:43:01.210Z,21.56
2022-10-06T10:46:15.085Z,21.62
2022-10-06T10:49:25.778Z,21.88
2022-10-06T10:52:36.501Z,21.62
2022-10-06T10:55:44.873Z,21.77
2022-10-06T10:58:50.654Z,21.31
2022-10-06T11:02:01.090Z,21.32
2022-10-06T11:05:17.490Z,21.32
2022-10-06T11:08:47.565Z,21.14
2022-10-06T11:12:33.804Z,20.93
2022-10-06T11:15:57.680Z,21.05
2022-10-06T11:19:29.998Z,21.08
2022-10-06T11:22:44.758Z,20.90
2022-10-06T11:26:10.179Z,21.08
2022-10-06T11:29:49.598Z,21.62
2022-10-06T11:33:09.986Z,21.04
2022-10-06T11:36:19.291Z,21.09
2022-10-06T11:39:26.964Z,21.23
2022-10-06T11:42:41.068Z,21.80
2022-10-06T11:45:54.715Z,21.34
2022-10-06T11:49:30.461Z,21.51
2022-10-06T11:52:31.973Z,22.28
2022-10-06T11:55:33.885Z,22.22
2022-10-06T11:58:50.773Z,22.40
2022-10-06T12:01:56.057Z,22.20
2022-10-06T12:05:28.499Z,21.57
2022-10-06T12:08:40.642Z,21.54
2022-10-06T12:11:44.084Z,21.73
2022-10-06T12:18:30.937Z,22.00
2022-10-06T12:21:36.067Z,22.23
2022-10-06T12:24:44.410Z,22.73
2022-10-06T12:28:11.030Z,22.88
2022-10-06T12:31:21.501Z,23.21
2022-10-06T12:34:43.956Z,23.21
2022-10-06T12:37:54.437Z,23.02
2022-10-06T12:40:57.806Z,22.99
2022-10-06T12:44:00.754Z,23.11
2022-10-06T12:47:07.143Z,23.02
2022-10-06T12:50:25.400Z,23.14
2022-10-06T12:53:36.962Z,23.16
2022-10-06T12:56:41.220Z,23.18
2022-10-06T12:59:43.120Z,22.95
2022-10-06T13:02:45.500Z,22.76
2022-10-06T13:06:04.580Z,22.57
2022-10-06T13:09:14.436Z,22.36
2022-10-06T13:12:37.961Z,22.33
2022-10-06T13:15:43.299Z,22.20
2022-10-06T13:18:44.929Z,22.10
2022-10-06T13:21:47.095Z,22.14
2022-10-06T13:24:49.004Z,22.45
2022-10-06T13:27:52.072Z,22.58
2022-10-06T13:30:59.804Z,22.82
2022-10-06T13:34:12.150Z,22.46
2022-10-06T13:37:15.619Z,22.67
2022-10-06T13:40:47.318Z,23.30
2022-10-06T13:44:00.309Z,24.16
2022-10-06T13:47:16.762Z,26.08
2022-10-06T13:50:20.152Z,26.82
2022-10-06T13:53:25.762Z,26.16
2022-10-06T13:56:39.095Z,25.37
2022-10-06T13:59:41.347Z,24.41
2022-10-06T14:02:48.815Z,23.84
2022-10-06T14:05:52.428Z,23.43
2022-10-06T14:08:57.619Z,23.17
2022-10-06T14:12:13.047Z,22.89
2022-10-06T14:15:24.695Z,22.42
2022-10-06T14:18:33.486Z,22.25
2022-10-06T14:21:41.513Z,21.89
2022-10-06T14:24:51.205Z,21.87
2022-10-06T14:27:52.799Z,21.67
2022-10-06T14:30:56.378Z,21.38
2022-10-06T14:33:58.101Z,21.29
2022-10-06T14:37:00.028Z,21.21
2022-10-06T14:40:02.304Z,21.07
2022-10-06T14:43:04.169Z,21.06
2022-10-06T14:46:09.645Z,20.89
2022-10-06T14:49:14.043Z,20.65
2022-10-06T14:52:16.002Z,20.48
2022-10-06T14:55:17.590Z,20.46
2022-10-06T14:58:19.493Z,20.48
2022-10-06T15:01:25.298Z,20.26
2022-10-06T15:04:28.121Z,20.05
2022-10-06T15:07:48.590Z,20.04
2022-10-06T15:10:54.012Z,19.93
2022-10-06T15:13:58.403Z,19.68
2022-10-06T15:17:00.277Z,19.45
2022-10-06T15:20:02.063Z,19.32
2022-10-06T15:23:03.759Z,19.26
2022-10-06T15:26:24.777Z,19.09
2022-10-06T15:29:26.958Z,18.75
2022-10-06T15:32:28.537Z,18.44
2022-10-06T15:35:32.468Z,18.31
2022-10-06T15:38:36.444Z,18.17
2022-10-06T15:41:39.803Z,18.11
2022-10-06T15:44:41.338Z,18.02
2022-10-06T15:47:43.196Z,17.74
2022-10-06T15:50:44.812Z,17.63
2022-10-06T15:53:46.604Z,17.60
2022-10-06T15:56:50.777Z,17.52
2022-10-06T15:59:52.777Z,17.37
2022-10-06T16:02:54.754Z,17.28
2022-10-06T16:06:00.261Z,17.26
2022-10-06T16:09:01.808Z,17.00
2022-10-06T16:12:06.143Z,16.81
2022-10-06T16:15:08.205Z,16.69
2022-10-06T16:18:10.033Z,16.57
2022-10-06T16:21:11.626Z,16.68
2022-10-06T16:24:13.575Z,16.48
2022-10-06T16:27:16.027Z,16.51
2022-10-06T16:30:17.629Z,16.23
2022-10-06T16:33:19.208Z,16.07
2022-10-06T16:36:21.252Z,16.06
2022-10-06T16:39:23.727Z,16.10
2022-10-06T16:42:25.343Z,16.01
2022-10-06T16:45:26.930Z,15.99
2022-10-06T16:48:30.050Z,15.91
2022-10-06T16:51:34.345Z,16.09
2022-10-06T16:54:35.879Z,16.05
2022-10-06T16:57:37.454Z,16.12
2022-10-06T17:00:39.463Z,16.09
2022-10-06T17:03:41.694Z,16.15
2022-10-06T17:06:45.763Z,16.21
2022-10-06T17:10:08.521Z,16.09
2022-10-06T17:13:09.437Z,15.95
2022-10-06T17:16:13.983Z,15.74
2022-10-06T17:19:17.326Z,15.55
2022-10-06T17:22:19.208Z,15.52
2022-10-06T17:25:22.550Z,15.44
2022-10-06T17:28:24.234Z,15.15
2022-10-06T17:31:33.044Z,14.72
2022-10-06T17:34:34.690Z,14.90
2022-10-06T17:37:37.201Z,15.09
2022-10-06T17:40:45.133Z,15.14
2022-10-06T17:43:49.624Z,14.91
2022-10-06T17:46:56.715Z,14.81
2022-10-06T17:49:58.934Z,14.55
2022-10-06T17:53:01.419Z,14.71
2022-10-06T17:56:07.685Z,14.89
2022-10-06T17:59:16.025Z,14.87
2022-10-06T18:02:18.076Z,14.67
2022-10-06T18:05:19.693Z,14.87
2022-10-06T18:08:23.741Z,14.77
2022-10-06T18:12:04.357Z,14.88
2022-10-06T18:15:06.289Z,14.77
2022-10-06T18:18:08.615Z,14.71
2022-10-06T18:21:10.598Z,14.42
2022-10-06T18:24:14.129Z,14.35
2022-10-06T18:27:16.295Z,14.35
2022-10-06T18:30:18.160Z,14.28
2022-10-06T18:35:57.481Z,14.58
2022-10-06T18:36:42.890Z,14.56
2022-10-06T18:39:44.673Z,14.41
2022-10-06T18:42:47.566Z,14.32
2022-10-06T18:46:08.583Z,14.25
2022-10-06T18:49:16.453Z,14.01
2022-10-06T18:52:18.317Z,13.99
2022-10-06T18:55:21.038Z,14.05
2022-10-06T18:58:23.203Z,14.27
2022-10-06T19:01:30.073Z,14.21
2022-10-06T19:04:36.356Z,13.94
2022-10-06T19:07:38.759Z,13.91
2022-10-06T19:11:00.797Z,13.83
2022-10-06T19:14:03.247Z,13.87
2022-10-06T19:17:13.834Z,14.01
2022-10-06T19:20:15.986Z,13.66
2022-10-06T19:23:19.093Z,13.53
2022-10-06T19:26:22.962Z,13.86
2022-10-06T19:29:27.332Z,13.92
2022-10-06T19:32:34.551Z,13.89
2022-10-06T19:35:36.717Z,13.89
2022-10-06T19:38:39.054Z,13.74
2022-10-06T19:42:00.710Z,13.63
2022-10-06T19:45:03.792Z,13.94
2022-10-06T19:48:05.698Z,14.07
2022-10-06T19:51:17.538Z,14.00
2022-10-06T19:54:19.876Z,14.03
2022-10-06T19:57:21.998Z,13.97
2022-10-06T20:00:27.214Z,13.87
2022-10-06T20:03:30.403Z,13.94
2022-10-06T20:06:35.129Z,13.81
2022-10-06T20:09:36.732Z,13.68
2022-10-06T20:12:39.410Z,13.31
2022-10-06T20:15:40.960Z,13.52
2022-10-06T20:18:44.144Z,13.37
2022-10-06T20:21:47.275Z,13.32
2022-10-06T20:24:48.983Z,13.35
2022-10-06T20:27:50.876Z,13.52
2022-10-06T20:30:53.476Z,13.48
2022-10-06T20:33:58.422Z,13.54
2022-10-06T20:37:05.266Z,13.61
2022-10-06T20:40:26.477Z,13.58
2022-10-06T20:43:28.754Z,13.51
2022-10-06T20:46:33.177Z,13.43
2022-10-06T20:49:34.874Z,13.48
2022-10-06T20:52:37.021Z,13.34
2022-10-06T20:55:38.566Z,13.19
2022-10-06T20:58:44.148Z,13.22
2022-10-06T21:01:47.425Z,13.26
2022-10-06T21:04:49.384Z,13.28
2022-10-06T21:07:51.043Z,13.23
2022-10-06T21:11:03.293Z,13.05
2022-10-06T21:14:07.419Z,12.93
2022-10-06T21:17:09.109Z,12.99
2022-10-06T21:20:11.172Z,12.76
2022-10-06T21:23:13.628Z,12.93
2022-10-06T21:26:18.048Z,12.96
2022-10-06T21:29:20.619Z,12.91
2022-10-06T21:32:22.617Z,12.59
2022-10-06T21:35:24.631Z,12.58
2022-10-06T21:38:26.920Z,12.82
2022-10-06T21:41:36.413Z,12.81
2022-10-06T21:44:38.106Z,12.62
2022-10-06T21:47:40.132Z,12.71
2022-10-06T21:50:41.864Z,12.62
2022-10-06T21:53:44.061Z,12.63
2022-10-06T21:56:46.321Z,12.47
2022-10-06T21:59:48.082Z,12.49
2022-10-06T22:02:51.057Z,12.32
2022-10-06T22:05:52.767Z,12.29
2022-10-06T22:08:55.883Z,12.28
2022-10-06T22:11:58.449Z,12.36
2022-10-06T22:15:00.433Z,12.16
2022-10-06T22:18:02.519Z,11.97
2022-10-06T22:21:14.890Z,12.18
2022-10-06T22:24:21.634Z,12.28
2022-10-06T22:27:24.156Z,12.30
2022-10-06T22:30:26.196Z,12.40
2022-10-06T22:33:27.871Z,12.03
2022-10-06T22:36:29.845Z,11.73
2022-10-06T22:39:32.068Z,11.71
2022-10-06T22:42:33.721Z,12.00
2022-10-06T22:45:35.799Z,12.08
2022-10-06T22:48:38.577Z,12.03
2022-10-06T22:51:40.272Z,11.99
2022-10-06T22:54:42.268Z,12.07
2022-10-06T22:57:44.209Z,12.07
2022-10-06T23:00:46.275Z,11.91
2022-10-06T23:03:48.477Z,12.00
2022-10-06T23:06:50.184Z,12.16
2022-10-06T23:09:52.113Z,11.66
2022-10-06T23:12:55.461Z,11.52
2022-10-06T23:16:08.345Z,11.68
2022-10-06T23:19:10.895Z,11.35
2022-10-06T23:22:12.540Z,11.29
2022-10-06T23:25:14.761Z,11.34
2022-10-06T23:28:16.509Z,11.12
2022-10-06T23:31:18.455Z,10.91
2022-10-06T23:34:20.400Z,10.93
2022-10-06T23:37:22.064Z,11.05
2022-10-06T23:40:24.034Z,10.76
2022-10-06T23:43:25.763Z,10.66
2022-10-06T23:46:27.880Z,10.87
2022-10-06T23:49:30.032Z,10.62
2022-10-06T23:52:31.874Z,10.51
2022-10-06T23:55:33.739Z,10.67
2022-10-06T23:58:35.739Z,10.81
